sensor_id;sensor_type;location;lat;lon;timestamp;temperature;humidity
51725;DHT22;37801;53.224;6.552;2022-11-15T00:02:22;9.30;91.90
51725;DHT22;37801;53.224;6.552;2022-11-15T00:04:48;9.20;92.30
51725;DHT22;37801;53.224;6.552;2022-11-15T00:07:14;9.30;96.70
51725;DHT22;37801;53.224;6.552;2022-11-15T00:09:39;9.30;94.50
51725;DHT22;37801;53.224;6.552;2022-11-15T00:12:05;9.20;94.40
51725;DHT22;37801;53.224;6.552;2022-11-15T00:14:31;9.20;97.20
51725;DHT22;37801;53.224;6.552;2022-11-15T00:16:56;9.20;93.20
51725;DHT22;37801;53.224;6.552;2022-11-15T00:19:22;9.10;92.40
51725;DHT22;37801;53.224;6.552;2022-11-15T00:21:48;9.10;93.70
51725;DHT22;37801;53.224;6.552;2022-11-15T00:24:13;9.00;94.10
51725;DHT22;37801;53.224;6.552;2022-11-15T00:26:39;9.00;93.00
51725;DHT22;37801;53.224;6.552;2022-11-15T00:29:05;9.00;93.20
51725;DHT22;37801;53.224;6.552;2022-11-15T00:31:30;8.90;94.60
51725;DHT22;37801;53.224;6.552;2022-11-15T00:33:56;8.80;97.20
51725;DHT22;37801;53.224;6.552;2022-11-15T00:36:22;8.80;95.10
51725;DHT22;37801;53.224;6.552;2022-11-15T00:38:47;8.80;93.00
51725;DHT22;37801;53.224;6.552;2022-11-15T00:41:13;8.70;94.40
51725;DHT22;37801;53.224;6.552;2022-11-15T00:43:39;8.70;96.00
51725;DHT22;37801;53.224;6.552;2022-11-15T00:46:05;8.60;94.90
51725;DHT22;37801;53.224;6.552;2022-11-15T00:48:31;8.70;98.70
51725;DHT22;37801;53.224;6.552;2022-11-15T00:50:57;8.70;98.70
51725;DHT22;37801;53.224;6.552;2022-11-15T00:53:23;8.80;99.90
51725;DHT22;37801;53.224;6.552;2022-11-15T00:55:48;8.80;99.90
51725;DHT22;37801;53.224;6.552;2022-11-15T00:58:14;8.80;98.50
51725;DHT22;37801;53.224;6.552;2022-11-15T01:00:40;8.80;97.80
51725;DHT22;37801;53.224;6.552;2022-11-15T01:03:05;8.90;97.90
51725;DHT22;37801;53.224;6.552;2022-11-15T01:05:31;8.80;96.50
51725;DHT22;37801;53.224;6.552;2022-11-15T01:07:57;8.90;98.60
51725;DHT22;37801;53.224;6.552;2022-11-15T01:10:23;8.80;99.70
51725;DHT22;37801;53.224;6.552;2022-11-15T01:12:49;8.80;96.20
51725;DHT22;37801;53.224;6.552;2022-11-15T01:15:15;8.80;93.70
51725;DHT22;37801;53.224;6.552;2022-11-15T01:17:41;8.80;95.00
51725;DHT22;37801;53.224;6.552;2022-11-15T01:20:07;8.80;98.30
51725;DHT22;37801;53.224;6.552;2022-11-15T01:22:33;8.70;97.00
51725;DHT22;37801;53.224;6.552;2022-11-15T01:24:59;8.70;96.00
51725;DHT22;37801;53.224;6.552;2022-11-15T01:27:25;8.70;94.80
51725;DHT22;37801;53.224;6.552;2022-11-15T01:29:50;8.70;94.60
51725;DHT22;37801;53.224;6.552;2022-11-15T01:32:16;8.70;93.50
51725;DHT22;37801;53.224;6.552;2022-11-15T01:34:42;8.70;95.00
51725;DHT22;37801;53.224;6.552;2022-11-15T01:37:07;8.60;94.70
51725;DHT22;37801;53.224;6.552;2022-11-15T01:39:33;8.60;93.20
51725;DHT22;37801;53.224;6.552;2022-11-15T01:41:59;8.70;94.00
51725;DHT22;37801;53.224;6.552;2022-11-15T01:44:36;8.60;93.70
51725;DHT22;37801;53.224;6.552;2022-11-15T01:47:51;8.70;92.50
51725;DHT22;37801;53.224;6.552;2022-11-15T01:50:03;8.70;93.70
51725;DHT22;37801;53.224;6.552;2022-11-15T01:52:31;8.60;92.50
51725;DHT22;37801;53.224;6.552;2022-11-15T01:55:14;8.60;91.90
51725;DHT22;37801;53.224;6.552;2022-11-15T01:57:42;8.60;90.50
51725;DHT22;37801;53.224;6.552;2022-11-15T02:00:09;8.70;91.30
51725;DHT22;37801;53.224;6.552;2022-11-15T02:02:36;8.60;92.90
51725;DHT22;37801;53.224;6.552;2022-11-15T02:05:03;8.60;94.00
51725;DHT22;37801;53.224;6.552;2022-11-15T02:07:29;8.60;91.70
51725;DHT22;37801;53.224;6.552;2022-11-15T02:09:58;8.70;92.90
51725;DHT22;37801;53.224;6.552;2022-11-15T02:12:25;8.70;92.10
51725;DHT22;37801;53.224;6.552;2022-11-15T02:14:53;8.70;91.90
51725;DHT22;37801;53.224;6.552;2022-11-15T02:17:31;8.70;91.60
51725;DHT22;37801;53.224;6.552;2022-11-15T02:32:03;8.60;92.10
51725;DHT22;37801;53.224;6.552;2022-11-15T02:37:15;8.70;94.90
51725;DHT22;37801;53.224;6.552;2022-11-15T02:42:26;8.70;95.20
51725;DHT22;37801;53.224;6.552;2022-11-15T02:45:23;8.70;96.60
51725;DHT22;37801;53.224;6.552;2022-11-15T02:47:53;8.70;94.50
51725;DHT22;37801;53.224;6.552;2022-11-15T02:50:21;8.70;94.00
51725;DHT22;37801;53.224;6.552;2022-11-15T02:52:50;8.70;95.50
51725;DHT22;37801;53.224;6.552;2022-11-15T02:55:27;8.70;95.00
51725;DHT22;37801;53.224;6.552;2022-11-15T03:00:59;8.80;96.00
51725;DHT22;37801;53.224;6.552;2022-11-15T03:11:32;8.80;99.20
51725;DHT22;37801;53.224;6.552;2022-11-15T03:17:11;8.80;98.00
51725;DHT22;37801;53.224;6.552;2022-11-15T03:19:47;8.80;97.40
51725;DHT22;37801;53.224;6.552;2022-11-15T03:22:18;8.80;99.70
51725;DHT22;37801;53.224;6.552;2022-11-15T03:24:50;8.90;99.30
51725;DHT22;37801;53.224;6.552;2022-11-15T03:27:20;8.90;99.90
51725;DHT22;37801;53.224;6.552;2022-11-15T03:29:52;8.90;99.90
51725;DHT22;37801;53.224;6.552;2022-11-15T03:32:25;8.90;99.90
51725;DHT22;37801;53.224;6.552;2022-11-15T03:37:34;8.90;99.90
51725;DHT22;37801;53.224;6.552;2022-11-15T03:40:01;8.90;99.90
51725;DHT22;37801;53.224;6.552;2022-11-15T03:42:38;8.90;99.90
51725;DHT22;37801;53.224;6.552;2022-11-15T03:45:21;8.90;99.90
51725;DHT22;37801;53.224;6.552;2022-11-15T03:48:12;8.90;99.90
51725;DHT22;37801;53.224;6.552;2022-11-15T03:50:38;9.00;99.90
51725;DHT22;37801;53.224;6.552;2022-11-15T03:53:04;8.90;99.90
51725;DHT22;37801;53.224;6.552;2022-11-15T03:55:31;9.00;99.90
51725;DHT22;37801;53.224;6.552;2022-11-15T03:57:59;9.00;99.90
51725;DHT22;37801;53.224;6.552;2022-11-15T04:00:26;9.00;99.90
51725;DHT22;37801;53.224;6.552;2022-11-15T04:02:51;9.10;99.90
51725;DHT22;37801;53.224;6.552;2022-11-15T04:05:17;9.10;99.90
51725;DHT22;37801;53.224;6.552;2022-11-15T04:07:43;9.10;99.90
51725;DHT22;37801;53.224;6.552;2022-11-15T04:10:10;9.10;99.90
51725;DHT22;37801;53.224;6.552;2022-11-15T04:12:41;9.20;99.90
51725;DHT22;37801;53.224;6.552;2022-11-15T04:15:14;9.20;99.90
51725;DHT22;37801;53.224;6.552;2022-11-15T04:17:45;9.20;99.90
51725;DHT22;37801;53.224;6.552;2022-11-15T04:23:06;9.20;99.90
51725;DHT22;37801;53.224;6.552;2022-11-15T04:25:52;9.20;99.90
51725;DHT22;37801;53.224;6.552;2022-11-15T04:28:19;9.20;99.90
51725;DHT22;37801;53.224;6.552;2022-11-15T04:30:45;9.20;99.90
51725;DHT22;37801;53.224;6.552;2022-11-15T04:33:11;9.20;99.90
51725;DHT22;37801;53.224;6.552;2022-11-15T04:35:36;9.20;99.90
51725;DHT22;37801;53.224;6.552;2022-11-15T04:38:04;9.20;99.90
51725;DHT22;37801;53.224;6.552;2022-11-15T04:40:30;9.10;99.90
51725;DHT22;37801;53.224;6.552;2022-11-15T04:42:55;9.10;99.90
51725;DHT22;37801;53.224;6.552;2022-11-15T04:45:21;9.20;99.90
51725;DHT22;37801;53.224;6.552;2022-11-15T04:47:47;9.20;99.90
51725;DHT22;37801;53.224;6.552;2022-11-15T04:50:15;9.20;99.90
51725;DHT22;37801;53.224;6.552;2022-11-15T04:52:51;9.20;99.90
51725;DHT22;37801;53.224;6.552;2022-11-15T04:55:16;9.20;99.90
51725;DHT22;37801;53.224;6.552;2022-11-15T04:57:42;9.10;99.90
51725;DHT22;37801;53.224;6.552;2022-11-15T05:00:11;9.20;99.90
51725;DHT22;37801;53.224;6.552;2022-11-15T05:02:37;9.30;99.90
51725;DHT22;37801;53.224;6.552;2022-11-15T05:05:21;9.30;99.90
51725;DHT22;37801;53.224;6.552;2022-11-15T05:07:48;9.30;99.90
51725;DHT22;37801;53.224;6.552;2022-11-15T05:10:14;9.30;99.90
51725;DHT22;37801;53.224;6.552;2022-11-15T05:12:40;9.30;99.90
51725;DHT22;37801;53.224;6.552;2022-11-15T05:15:06;9.30;99.90
51725;DHT22;37801;53.224;6.552;2022-11-15T05:17:32;9.40;99.90
51725;DHT22;37801;53.224;6.552;2022-11-15T05:19:57;9.30;99.90
51725;DHT22;37801;53.224;6.552;2022-11-15T05:22:23;9.40;99.90
51725;DHT22;37801;53.224;6.552;2022-11-15T05:24:49;9.40;99.90
51725;DHT22;37801;53.224;6.552;2022-11-15T05:27:14;9.40;99.90
51725;DHT22;37801;53.224;6.552;2022-11-15T05:29:40;9.40;99.90
51725;DHT22;37801;53.224;6.552;2022-11-15T05:32:08;9.40;99.90
51725;DHT22;37801;53.224;6.552;2022-11-15T05:34:35;9.40;99.90
51725;DHT22;37801;53.224;6.552;2022-11-15T05:37:00;9.50;99.90
51725;DHT22;37801;53.224;6.552;2022-11-15T05:39:26;9.40;99.90
51725;DHT22;37801;53.224;6.552;2022-11-15T05:42:13;9.50;99.90
51725;DHT22;37801;53.224;6.552;2022-11-15T05:44:41;9.50;99.90
51725;DHT22;37801;53.224;6.552;2022-11-15T05:47:13;9.50;99.90
51725;DHT22;37801;53.224;6.552;2022-11-15T05:49:42;9.50;99.90
51725;DHT22;37801;53.224;6.552;2022-11-15T05:52:13;9.60;99.90
51725;DHT22;37801;53.224;6.552;2022-11-15T05:54:40;9.50;99.90
51725;DHT22;37801;53.224;6.552;2022-11-15T05:57:06;9.60;99.90
51725;DHT22;37801;53.224;6.552;2022-11-15T05:59:33;9.60;99.90
51725;DHT22;37801;53.224;6.552;2022-11-15T06:01:59;9.60;99.90
51725;DHT22;37801;53.224;6.552;2022-11-15T06:04:24;9.60;99.90
51725;DHT22;37801;53.224;6.552;2022-11-15T06:06:50;9.60;99.90
51725;DHT22;37801;53.224;6.552;2022-11-15T06:09:16;9.60;99.90
51725;DHT22;37801;53.224;6.552;2022-11-15T06:11:42;9.60;99.90
51725;DHT22;37801;53.224;6.552;2022-11-15T06:14:07;9.60;99.90
51725;DHT22;37801;53.224;6.552;2022-11-15T06:16:33;9.60;99.90
51725;DHT22;37801;53.224;6.552;2022-11-15T06:18:59;9.60;99.90
51725;DHT22;37801;53.224;6.552;2022-11-15T06:21:24;9.60;99.90
51725;DHT22;37801;53.224;6.552;2022-11-15T06:23:53;9.70;99.90
51725;DHT22;37801;53.224;6.552;2022-11-15T06:26:19;9.70;99.90
51725;DHT22;37801;53.224;6.552;2022-11-15T06:28:45;9.70;99.90
51725;DHT22;37801;53.224;6.552;2022-11-15T06:31:11;9.70;99.90
51725;DHT22;37801;53.224;6.552;2022-11-15T06:33:38;9.70;99.90
51725;DHT22;37801;53.224;6.552;2022-11-15T06:36:08;9.80;99.90
51725;DHT22;37801;53.224;6.552;2022-11-15T06:38:34;9.80;99.90
51725;DHT22;37801;53.224;6.552;2022-11-15T06:41:05;9.80;99.90
51725;DHT22;37801;53.224;6.552;2022-11-15T06:43:31;9.80;99.90
51725;DHT22;37801;53.224;6.552;2022-11-15T06:46:02;9.80;99.90
51725;DHT22;37801;53.224;6.552;2022-11-15T06:48:28;9.80;99.90
51725;DHT22;37801;53.224;6.552;2022-11-15T06:50:56;9.80;99.90
51725;DHT22;37801;53.224;6.552;2022-11-15T06:53:22;9.90;99.90
51725;DHT22;37801;53.224;6.552;2022-11-15T06:55:48;9.90;99.90
51725;DHT22;37801;53.224;6.552;2022-11-15T06:58:14;9.90;99.90
51725;DHT22;37801;53.224;6.552;2022-11-15T07:00:40;9.90;99.90
51725;DHT22;37801;53.224;6.552;2022-11-15T07:03:06;9.90;99.90
51725;DHT22;37801;53.224;6.552;2022-11-15T07:05:32;10.00;99.90
51725;DHT22;37801;53.224;6.552;2022-11-15T07:07:58;10.00;99.90
51725;DHT22;37801;53.224;6.552;2022-11-15T07:10:24;10.00;99.90
51725;DHT22;37801;53.224;6.552;2022-11-15T07:12:51;10.00;99.90
51725;DHT22;37801;53.224;6.552;2022-11-15T07:15:18;10.10;99.90
51725;DHT22;37801;53.224;6.552;2022-11-15T07:17:43;10.10;99.90
51725;DHT22;37801;53.224;6.552;2022-11-15T07:20:10;10.10;99.90
51725;DHT22;37801;53.224;6.552;2022-11-15T07:22:36;10.10;99.90
51725;DHT22;37801;53.224;6.552;2022-11-15T07:25:02;10.20;99.90
51725;DHT22;37801;53.224;6.552;2022-11-15T07:27:27;10.10;99.90
51725;DHT22;37801;53.224;6.552;2022-11-15T07:29:53;10.20;99.90
51725;DHT22;37801;53.224;6.552;2022-11-15T07:32:19;10.30;99.90
51725;DHT22;37801;53.224;6.552;2022-11-15T07:34:44;10.30;99.90
51725;DHT22;37801;53.224;6.552;2022-11-15T07:37:11;10.30;99.90
51725;DHT22;37801;53.224;6.552;2022-11-15T07:39:37;10.30;99.90
51725;DHT22;37801;53.224;6.552;2022-11-15T07:42:03;10.30;99.90
51725;DHT22;37801;53.224;6.552;2022-11-15T07:44:47;10.30;99.90
51725;DHT22;37801;53.224;6.552;2022-11-15T07:47:13;10.30;99.90
51725;DHT22;37801;53.224;6.552;2022-11-15T07:49:39;10.40;99.90
51725;DHT22;37801;53.224;6.552;2022-11-15T07:52:05;10.40;99.90
51725;DHT22;37801;53.224;6.552;2022-11-15T07:54:30;10.40;99.90
51725;DHT22;37801;53.224;6.552;2022-11-15T07:56:56;10.50;99.90
51725;DHT22;37801;53.224;6.552;2022-11-15T07:59:22;10.50;99.90
51725;DHT22;37801;53.224;6.552;2022-11-15T08:01:48;10.40;99.90
51725;DHT22;37801;53.224;6.552;2022-11-15T08:04:14;10.50;99.90
51725;DHT22;37801;53.224;6.552;2022-11-15T08:06:39;10.50;99.90
51725;DHT22;37801;53.224;6.552;2022-11-15T08:09:05;10.50;99.90
51725;DHT22;37801;53.224;6.552;2022-11-15T08:11:31;10.50;99.90
51725;DHT22;37801;53.224;6.552;2022-11-15T08:13:57;10.60;99.90
51725;DHT22;37801;53.224;6.552;2022-11-15T08:16:22;10.60;99.90
51725;DHT22;37801;53.224;6.552;2022-11-15T08:18:48;10.60;99.90
51725;DHT22;37801;53.224;6.552;2022-11-15T08:21:18;10.60;99.90
51725;DHT22;37801;53.224;6.552;2022-11-15T08:23:44;10.60;99.90
51725;DHT22;37801;53.224;6.552;2022-11-15T08:26:10;10.70;99.90
51725;DHT22;37801;53.224;6.552;2022-11-15T08:28:36;10.70;99.90
51725;DHT22;37801;53.224;6.552;2022-11-15T08:31:03;10.70;99.90
51725;DHT22;37801;53.224;6.552;2022-11-15T08:33:29;10.80;99.90
51725;DHT22;37801;53.224;6.552;2022-11-15T08:35:59;10.80;99.90
51725;DHT22;37801;53.224;6.552;2022-11-15T08:38:26;10.80;99.90
51725;DHT22;37801;53.224;6.552;2022-11-15T08:40:59;10.80;99.90
51725;DHT22;37801;53.224;6.552;2022-11-15T08:43:25;10.90;99.90
51725;DHT22;37801;53.224;6.552;2022-11-15T08:45:51;10.90;99.90
51725;DHT22;37801;53.224;6.552;2022-11-15T08:48:16;10.90;99.90
51725;DHT22;37801;53.224;6.552;2022-11-15T08:50:42;10.90;99.90
51725;DHT22;37801;53.224;6.552;2022-11-15T08:53:09;10.90;99.90
51725;DHT22;37801;53.224;6.552;2022-11-15T08:55:39;11.00;99.90
51725;DHT22;37801;53.224;6.552;2022-11-15T08:58:05;10.90;99.90
51725;DHT22;37801;53.224;6.552;2022-11-15T09:00:31;11.00;99.90
51725;DHT22;37801;53.224;6.552;2022-11-15T09:02:56;11.00;99.90
51725;DHT22;37801;53.224;6.552;2022-11-15T09:05:22;11.00;99.90
51725;DHT22;37801;53.224;6.552;2022-11-15T09:07:53;11.00;99.90
51725;DHT22;37801;53.224;6.552;2022-11-15T09:10:19;11.00;99.90
51725;DHT22;37801;53.224;6.552;2022-11-15T09:12:45;11.10;99.90
51725;DHT22;37801;53.224;6.552;2022-11-15T09:15:14;11.20;99.90
51725;DHT22;37801;53.224;6.552;2022-11-15T09:17:40;11.20;99.90
51725;DHT22;37801;53.224;6.552;2022-11-15T09:20:08;11.20;99.90
51725;DHT22;37801;53.224;6.552;2022-11-15T09:22:34;11.20;99.90
51725;DHT22;37801;53.224;6.552;2022-11-15T09:25:00;11.30;99.90
51725;DHT22;37801;53.224;6.552;2022-11-15T09:27:29;11.30;99.90
51725;DHT22;37801;53.224;6.552;2022-11-15T09:29:55;11.30;99.90
51725;DHT22;37801;53.224;6.552;2022-11-15T09:32:22;11.40;99.90
51725;DHT22;37801;53.224;6.552;2022-11-15T09:34:50;11.30;99.90
51725;DHT22;37801;53.224;6.552;2022-11-15T09:37:16;11.30;99.90
51725;DHT22;37801;53.224;6.552;2022-11-15T09:39:41;11.40;99.90
51725;DHT22;37801;53.224;6.552;2022-11-15T09:42:29;11.50;99.90
51725;DHT22;37801;53.224;6.552;2022-11-15T09:45:22;11.40;99.90
51725;DHT22;37801;53.224;6.552;2022-11-15T09:48:12;11.40;99.90
51725;DHT22;37801;53.224;6.552;2022-11-15T09:50:49;11.50;99.90
51725;DHT22;37801;53.224;6.552;2022-11-15T09:56:19;11.50;99.90
51725;DHT22;37801;53.224;6.552;2022-11-15T10:03:59;11.60;99.90
51725;DHT22;37801;53.224;6.552;2022-11-15T10:06:26;11.60;99.90
51725;DHT22;37801;53.224;6.552;2022-11-15T10:11:27;11.70;99.90
51725;DHT22;37801;53.224;6.552;2022-11-15T10:14:17;11.60;99.90
51725;DHT22;37801;53.224;6.552;2022-11-15T10:24:41;11.60;99.90
51725;DHT22;37801;53.224;6.552;2022-11-15T10:27:16;11.70;99.90
51725;DHT22;37801;53.224;6.552;2022-11-15T10:29:50;11.70;99.90
51725;DHT22;37801;53.224;6.552;2022-11-15T10:32:18;11.70;99.90
51725;DHT22;37801;53.224;6.552;2022-11-15T10:34:44;11.70;99.90
51725;DHT22;37801;53.224;6.552;2022-11-15T10:37:11;11.80;99.90
51725;DHT22;37801;53.224;6.552;2022-11-15T10:39:37;11.80;99.90
51725;DHT22;37801;53.224;6.552;2022-11-15T10:42:27;11.80;99.90
51725;DHT22;37801;53.224;6.552;2022-11-15T10:44:54;11.80;99.90
51725;DHT22;37801;53.224;6.552;2022-11-15T10:47:31;11.90;99.90
51725;DHT22;37801;53.224;6.552;2022-11-15T10:50:03;11.80;99.90
51725;DHT22;37801;53.224;6.552;2022-11-15T10:52:31;11.80;99.90
51725;DHT22;37801;53.224;6.552;2022-11-15T10:57:48;11.90;99.90
51725;DHT22;37801;53.224;6.552;2022-11-15T11:05:36;11.80;99.90
51725;DHT22;37801;53.224;6.552;2022-11-15T11:08:23;11.80;99.90
51725;DHT22;37801;53.224;6.552;2022-11-15T11:11:07;11.80;99.90
51725;DHT22;37801;53.224;6.552;2022-11-15T11:13:38;11.90;99.90
51725;DHT22;37801;53.224;6.552;2022-11-15T11:35:29;12.10;99.90
51725;DHT22;37801;53.224;6.552;2022-11-15T11:40:54;12.20;99.90
51725;DHT22;37801;53.224;6.552;2022-11-15T11:46:15;12.20;99.90
51725;DHT22;37801;53.224;6.552;2022-11-15T11:48:47;12.20;99.90
51725;DHT22;37801;53.224;6.552;2022-11-15T11:51:28;12.20;99.90
51725;DHT22;37801;53.224;6.552;2022-11-15T11:56:33;12.40;99.90
51725;DHT22;37801;53.224;6.552;2022-11-15T11:59:05;12.30;99.90
51725;DHT22;37801;53.224;6.552;2022-11-15T12:01:37;12.30;99.90
51725;DHT22;37801;53.224;6.552;2022-11-15T12:07:13;12.20;99.90
51725;DHT22;37801;53.224;6.552;2022-11-15T12:17:15;12.00;99.90
51725;DHT22;37801;53.224;6.552;2022-11-15T12:19:41;12.00;99.90
51725;DHT22;37801;53.224;6.552;2022-11-15T12:22:35;12.10;99.90
51725;DHT22;37801;53.224;6.552;2022-11-15T12:25:04;12.10;99.90
51725;DHT22;37801;53.224;6.552;2022-11-15T12:27:48;12.10;99.90
51725;DHT22;37801;53.224;6.552;2022-11-15T12:30:18;12.00;99.90
51725;DHT22;37801;53.224;6.552;2022-11-15T12:33:05;12.00;99.90
51725;DHT22;37801;53.224;6.552;2022-11-15T12:35:39;11.90;99.90
51725;DHT22;37801;53.224;6.552;2022-11-15T12:38:10;11.90;99.90
51725;DHT22;37801;53.224;6.552;2022-11-15T12:41:24;11.90;99.90
51725;DHT22;37801;53.224;6.552;2022-11-15T12:43:42;11.80;99.90
51725;DHT22;37801;53.224;6.552;2022-11-15T12:46:23;11.90;99.90
51725;DHT22;37801;53.224;6.552;2022-11-15T13:02:37;11.90;99.90
51725;DHT22;37801;53.224;6.552;2022-11-15T13:17:40;12.20;99.90
51725;DHT22;37801;53.224;6.552;2022-11-15T13:22:51;12.20;99.90
51725;DHT22;37801;53.224;6.552;2022-11-15T13:27:51;12.20;99.90
51725;DHT22;37801;53.224;6.552;2022-11-15T13:30:22;12.20;99.90
51725;DHT22;37801;53.224;6.552;2022-11-15T13:32:48;12.20;99.90
51725;DHT22;37801;53.224;6.552;2022-11-15T13:35:23;12.20;99.90
51725;DHT22;37801;53.224;6.552;2022-11-15T13:37:50;12.10;99.90
51725;DHT22;37801;53.224;6.552;2022-11-15T13:40:36;12.10;99.90
51725;DHT22;37801;53.224;6.552;2022-11-15T13:46:11;12.00;99.90
51725;DHT22;37801;53.224;6.552;2022-11-15T13:48:38;11.90;99.90
51725;DHT22;37801;53.224;6.552;2022-11-15T13:51:14;11.90;99.90
51725;DHT22;37801;53.224;6.552;2022-11-15T13:53:44;11.80;99.90
51725;DHT22;37801;53.224;6.552;2022-11-15T13:56:13;11.80;99.90
51725;DHT22;37801;53.224;6.552;2022-11-15T13:58:39;11.80;99.90
51725;DHT22;37801;53.224;6.552;2022-11-15T14:01:05;11.70;99.90
51725;DHT22;37801;53.224;6.552;2022-11-15T14:03:34;11.70;99.90
51725;DHT22;37801;53.224;6.552;2022-11-15T14:06:02;11.70;99.90
51725;DHT22;37801;53.224;6.552;2022-11-15T14:08:29;11.70;99.90
51725;DHT22;37801;53.224;6.552;2022-11-15T14:11:18;11.70;99.90
51725;DHT22;37801;53.224;6.552;2022-11-15T14:16:45;11.60;99.90
51725;DHT22;37801;53.224;6.552;2022-11-15T14:19:32;11.60;99.90
51725;DHT22;37801;53.224;6.552;2022-11-15T14:24:41;11.60;99.90
51725;DHT22;37801;53.224;6.552;2022-11-15T14:29:46;11.40;99.90
51725;DHT22;37801;53.224;6.552;2022-11-15T14:34:45;11.40;99.90
51725;DHT22;37801;53.224;6.552;2022-11-15T14:37:31;11.40;99.90
51725;DHT22;37801;53.224;6.552;2022-11-15T14:40:04;11.40;99.90
51725;DHT22;37801;53.224;6.552;2022-11-15T14:42:31;11.30;99.90
51725;DHT22;37801;53.224;6.552;2022-11-15T14:44:57;11.30;99.90
51725;DHT22;37801;53.224;6.552;2022-11-15T14:47:23;11.30;99.90
51725;DHT22;37801;53.224;6.552;2022-11-15T14:49:48;11.30;99.90
51725;DHT22;37801;53.224;6.552;2022-11-15T14:52:31;11.30;99.90
51725;DHT22;37801;53.224;6.552;2022-11-15T14:55:01;11.20;99.90
51725;DHT22;37801;53.224;6.552;2022-11-15T14:57:28;11.20;99.90
51725;DHT22;37801;53.224;6.552;2022-11-15T14:59:54;11.20;99.90
51725;DHT22;37801;53.224;6.552;2022-11-15T15:02:22;11.10;99.90
51725;DHT22;37801;53.224;6.552;2022-11-15T15:04:48;11.10;99.90
51725;DHT22;37801;53.224;6.552;2022-11-15T15:07:14;11.10;99.90
51725;DHT22;37801;53.224;6.552;2022-11-15T15:09:41;11.10;99.90
51725;DHT22;37801;53.224;6.552;2022-11-15T15:12:33;11.10;99.90
51725;DHT22;37801;53.224;6.552;2022-11-15T15:14:59;11.00;99.90
51725;DHT22;37801;53.224;6.552;2022-11-15T15:17:24;11.00;99.90
51725;DHT22;37801;53.224;6.552;2022-11-15T15:19:50;11.00;99.90
51725;DHT22;37801;53.224;6.552;2022-11-15T15:22:18;10.90;99.90
51725;DHT22;37801;53.224;6.552;2022-11-15T15:24:45;10.90;99.90
51725;DHT22;37801;53.224;6.552;2022-11-15T15:27:12;10.90;99.90
51725;DHT22;37801;53.224;6.552;2022-11-15T15:29:38;10.80;99.90
51725;DHT22;37801;53.224;6.552;2022-11-15T15:32:04;10.80;99.90
51725;DHT22;37801;53.224;6.552;2022-11-15T15:34:31;10.80;99.90
51725;DHT22;37801;53.224;6.552;2022-11-15T15:39:44;10.80;99.90
51725;DHT22;37801;53.224;6.552;2022-11-15T15:42:10;10.80;99.90
51725;DHT22;37801;53.224;6.552;2022-11-15T15:44:36;10.70;99.90
51725;DHT22;37801;53.224;6.552;2022-11-15T15:47:01;10.70;99.90
51725;DHT22;37801;53.224;6.552;2022-11-15T15:49:27;10.70;99.90
51725;DHT22;37801;53.224;6.552;2022-11-15T15:51:53;10.70;99.90
51725;DHT22;37801;53.224;6.552;2022-11-15T15:54:18;10.70;99.90
51725;DHT22;37801;53.224;6.552;2022-11-15T15:56:44;10.70;99.90
51725;DHT22;37801;53.224;6.552;2022-11-15T15:59:10;10.70;99.90
51725;DHT22;37801;53.224;6.552;2022-11-15T16:01:35;10.80;99.90
51725;DHT22;37801;53.224;6.552;2022-11-15T16:04:01;10.80;99.90
51725;DHT22;37801;53.224;6.552;2022-11-15T16:06:34;10.80;99.90
51725;DHT22;37801;53.224;6.552;2022-11-15T16:09:02;10.80;99.90
51725;DHT22;37801;53.224;6.552;2022-11-15T16:11:28;10.70;99.90
51725;DHT22;37801;53.224;6.552;2022-11-15T16:13:53;10.70;99.90
51725;DHT22;37801;53.224;6.552;2022-11-15T16:16:20;10.70;99.90
51725;DHT22;37801;53.224;6.552;2022-11-15T16:18:46;10.70;99.90
51725;DHT22;37801;53.224;6.552;2022-11-15T16:21:12;10.70;99.90
51725;DHT22;37801;53.224;6.552;2022-11-15T16:23:38;10.60;99.90
51725;DHT22;37801;53.224;6.552;2022-11-15T16:26:20;10.60;99.90
51725;DHT22;37801;53.224;6.552;2022-11-15T16:28:46;10.60;99.90
51725;DHT22;37801;53.224;6.552;2022-11-15T16:31:12;10.60;99.90
51725;DHT22;37801;53.224;6.552;2022-11-15T16:33:39;10.60;99.90
51725;DHT22;37801;53.224;6.552;2022-11-15T16:36:12;10.60;99.90
51725;DHT22;37801;53.224;6.552;2022-11-15T16:38:39;10.60;99.90
51725;DHT22;37801;53.224;6.552;2022-11-15T16:41:05;10.50;99.90
51725;DHT22;37801;53.224;6.552;2022-11-15T16:43:31;10.50;99.90
51725;DHT22;37801;53.224;6.552;2022-11-15T16:45:56;10.50;99.90
51725;DHT22;37801;53.224;6.552;2022-11-15T16:48:26;10.50;99.90
51725;DHT22;37801;53.224;6.552;2022-11-15T16:50:57;10.50;99.90
51725;DHT22;37801;53.224;6.552;2022-11-15T16:53:24;10.60;99.90
51725;DHT22;37801;53.224;6.552;2022-11-15T16:55:50;10.60;99.90
51725;DHT22;37801;53.224;6.552;2022-11-15T16:58:15;10.70;99.90
51725;DHT22;37801;53.224;6.552;2022-11-15T17:00:41;10.70;99.90
51725;DHT22;37801;53.224;6.552;2022-11-15T17:03:07;10.70;99.90
51725;DHT22;37801;53.224;6.552;2022-11-15T17:05:33;10.70;99.90
51725;DHT22;37801;53.224;6.552;2022-11-15T17:07:58;10.70;99.90
51725;DHT22;37801;53.224;6.552;2022-11-15T17:10:25;10.70;99.90
51725;DHT22;37801;53.224;6.552;2022-11-15T17:12:52;10.80;99.90
51725;DHT22;37801;53.224;6.552;2022-11-15T17:15:19;10.80;99.90
51725;DHT22;37801;53.224;6.552;2022-11-15T17:17:53;10.80;99.90
51725;DHT22;37801;53.224;6.552;2022-11-15T17:20:21;10.80;99.90
51725;DHT22;37801;53.224;6.552;2022-11-15T17:22:47;10.80;99.90
51725;DHT22;37801;53.224;6.552;2022-11-15T17:25:13;10.80;99.90
51725;DHT22;37801;53.224;6.552;2022-11-15T17:27:39;10.80;99.90
51725;DHT22;37801;53.224;6.552;2022-11-15T17:30:06;10.90;99.90
51725;DHT22;37801;53.224;6.552;2022-11-15T17:32:35;10.80;98.70
51725;DHT22;37801;53.224;6.552;2022-11-15T17:35:02;10.80;99.00
51725;DHT22;37801;53.224;6.552;2022-11-15T17:37:27;10.80;96.80
51725;DHT22;37801;53.224;6.552;2022-11-15T17:39:53;10.80;92.60
51725;DHT22;37801;53.224;6.552;2022-11-15T17:42:19;10.80;95.80
51725;DHT22;37801;53.224;6.552;2022-11-15T17:44:44;10.80;99.70
51725;DHT22;37801;53.224;6.552;2022-11-15T17:47:10;10.90;97.30
51725;DHT22;37801;53.224;6.552;2022-11-15T17:49:36;10.80;95.10
51725;DHT22;37801;53.224;6.552;2022-11-15T17:52:05;10.80;94.20
51725;DHT22;37801;53.224;6.552;2022-11-15T17:54:31;10.80;95.00
51725;DHT22;37801;53.224;6.552;2022-11-15T17:56:56;10.80;95.70
51725;DHT22;37801;53.224;6.552;2022-11-15T17:59:22;10.80;98.00
51725;DHT22;37801;53.224;6.552;2022-11-15T18:01:48;10.80;99.90
51725;DHT22;37801;53.224;6.552;2022-11-15T18:04:13;10.80;96.30
51725;DHT22;37801;53.224;6.552;2022-11-15T18:06:40;10.80;98.60
51725;DHT22;37801;53.224;6.552;2022-11-15T18:09:06;10.70;95.20
51725;DHT22;37801;53.224;6.552;2022-11-15T18:11:38;10.80;91.20
51725;DHT22;37801;53.224;6.552;2022-11-15T18:14:07;10.80;91.70
51725;DHT22;37801;53.224;6.552;2022-11-15T18:16:35;10.80;91.90
51725;DHT22;37801;53.224;6.552;2022-11-15T18:19:02;10.80;94.60